Time;durP1;ratioP1;P1;durP2;ratioP2;P2;SDS_P1;SDS_P2;PMS_P1;PMS_P2;Temp;Humidity;BMP_temperature;BMP_pressure;BME280_temperature;BME280_humidity;BME280_pressure;Samples;Min_cycle;Max_cycle;Signal;HPM_P1;HPM_P2
2022/08/21 00:01:56;;;;;;;;;5.25;5.00;;;;;21.85;47.31;101083.84;5075321;27;46487;-46
2022/08/21 00:04:22;;;;;;;;;8.75;6.25;;;;;21.98;47.18;101104.81;5075792;27;45306;-47
2022/08/21 00:06:47;;;;;;;;;4.00;4.00;;;;;21.97;47.33;101109.53;5074714;28;45265;-46
2022/08/21 00:09:13;;;;;;;;;6.25;5.00;;;;;22.00;47.48;101119.34;5075850;27;45488;-45
2022/08/21 00:11:38;;;;;;;;;6.75;5.50;;;;;21.80;47.62;101090.28;5075391;27;45827;-46
2022/08/21 00:14:05;;;;;;;;;4.75;4.75;;;;;21.83;47.71;101075.78;5075799;27;45870;-47
2022/08/21 00:16:31;;;;;;;;;9.60;5.20;;;;;21.92;47.76;101109.53;5075772;27;45351;-45
2022/08/21 00:18:56;;;;;;;;;5.50;5.25;;;;;21.89;48.04;101110.94;5075545;28;45352;-45
2022/08/21 00:21:22;;;;;;;;;4.00;4.00;;;;;21.91;48.01;101105.06;5075486;27;46345;-46
2022/08/21 00:23:47;;;;;;;;;4.25;4.00;;;;;21.96;47.81;101095.84;5075064;27;45372;-45
2022/08/21 00:26:13;;;;;;;;;8.00;5.75;;;;;21.91;48.04;101088.31;5075978;27;45331;-46
2022/08/21 00:28:38;;;;;;;;;5.00;5.00;;;;;21.88;48.21;101098.09;5087756;27;45292;-49
2022/08/21 00:31:04;;;;;;;;;4.25;4.25;;;;;21.80;48.46;101093.06;5096215;27;46474;-47
2022/08/21 00:33:29;;;;;;;;;2.50;2.50;;;;;21.71;48.72;101083.59;5095823;27;45257;-46
2022/08/21 00:35:55;;;;;;;;;5.25;3.00;;;;;21.77;48.50;101088.88;5095766;27;45481;-48
2022/08/21 00:38:20;;;;;;;;;5.00;5.00;;;;;21.80;48.52;101093.94;5096177;27;45304;-48
2022/08/21 00:40:47;;;;;;;;;5.25;4.75;;;;;21.84;48.40;101093.34;5095660;27;46697;-48
2022/08/21 00:43:14;;;;;;;;;3.60;3.60;;;;;21.78;48.75;101087.75;5095821;27;45434;-46
2022/08/21 00:45:40;;;;;;;;;5.80;4.00;;;;;21.73;48.90;101093.38;5095650;27;45290;-46
2022/08/21 00:48:05;;;;;;;;;4.00;4.00;;;;;21.77;49.04;101094.47;5096128;27;45155;-51
2022/08/21 00:50:32;;;;;;;;;3.00;3.00;;;;;21.75;48.65;101091.13;5095761;27;46188;-46
2022/08/21 00:52:58;;;;;;;;;4.80;3.00;;;;;21.76;48.90;101089.16;5114144;27;45442;-46
2022/08/21 00:55:24;;;;;;;;;2.00;2.00;;;;;21.50;48.88;101050.88;5115482;27;45323;-47
2022/08/21 00:57:52;;;;;;;;;5.50;4.50;;;;;21.77;48.79;101086.09;5097644;27;45503;-46
2022/08/21 01:00:21;;;;;;;;;5.40;5.40;;;;;21.73;48.76;101073.81;5098113;27;46637;-46
2022/08/21 01:02:47;;;;;;;;;2.80;2.80;;;;;21.85;48.74;101086.63;5098908;27;45458;-46
2022/08/21 01:05:12;;;;;;;;;4.25;4.25;;;;;21.85;48.57;101087.50;5099015;27;45323;-46
2022/08/21 01:07:38;;;;;;;;;4.75;2.50;;;;;21.81;48.81;101091.94;5098203;27;45283;-47
2022/08/21 01:10:04;;;;;;;;;4.25;1.25;;;;;21.70;48.82;101071.56;5098246;27;46320;-46
2022/08/21 01:12:30;;;;;;;;;3.20;2.80;;;;;21.79;48.89;101083.84;5097677;27;45409;-49
2022/08/21 01:14:56;;;;;;;;;5.75;4.00;;;;;21.67;48.79;101066.53;5097504;27;45420;-45
2022/08/21 01:17:21;;;;;;;;;4.00;3.00;;;;;21.82;48.91;101090.81;5097419;27;45328;-48
2022/08/21 01:19:47;;;;;;;;;5.00;4.25;;;;;21.83;48.87;101089.72;5053763;27;46730;-47
2022/08/21 01:22:12;;;;;;;;;7.00;4.00;;;;;21.82;48.85;101088.03;5093723;27;45432;-46
2022/08/21 01:24:38;;;;;;;;;4.25;4.25;;;;;21.70;49.23;101087.47;5078099;27;45447;-47
2022/08/21 01:27:04;;;;;;;;;5.50;3.00;;;;;21.50;49.24;101064.00;5078586;28;45433;-46
2022/08/21 01:29:48;;;;;;;;;5.50;4.00;;;;;21.65;49.36;101094.72;5094396;27;45655;-44
2022/08/21 01:32:16;;;;;;;;;4.40;4.40;;;;;21.63;49.54;101093.31;5098468;27;45449;-47
2022/08/21 01:34:43;;;;;;;;;3.80;3.00;;;;;21.59;49.32;101093.03;5098486;27;45359;-45
2022/08/21 01:37:09;;;;;;;;;4.20;4.20;;;;;21.50;49.21;101084.38;5098441;27;45481;-46
2022/08/21 01:39:34;;;;;;;;;3.25;2.25;;;;;21.62;49.33;101098.06;5098200;27;45346;-47
2022/08/21 01:42:00;;;;;;;;;4.75;3.25;;;;;21.66;49.11;101101.97;5098968;27;45598;-46
2022/08/21 01:44:25;;;;;;;;;7.50;6.50;;;;;21.67;49.18;101105.63;5098039;27;45404;-46
2022/08/21 01:46:51;;;;;;;;;6.00;4.75;;;;;21.63;49.20;101098.91;5097227;27;45374;-46
2022/08/21 01:49:17;;;;;;;;;3.00;3.00;;;;;21.65;49.28;101093.88;5080018;27;45765;-45
2022/08/21 01:51:42;;;;;;;;;4.00;4.00;;;;;21.53;49.49;101082.97;5098368;27;45517;-44
2022/08/21 01:54:08;;;;;;;;;10.50;8.75;;;;;21.55;49.60;101091.91;5098213;27;45346;-46
2022/08/21 01:56:52;;;;;;;;;6.00;4.00;;;;;21.57;49.79;101095.28;5098333;27;45354;-49
2022/08/21 01:59:17;;;;;;;;;2.80;2.20;;;;;21.56;49.47;101088.00;5097941;27;46992;-47
2022/08/21 02:01:43;;;;;;;;;5.25;5.25;;;;;21.44;49.76;101079.06;5098104;27;45390;-46
2022/08/21 02:04:09;;;;;;;;;4.50;3.25;;;;;21.46;49.58;101069.28;5095807;27;45320;-45
2022/08/21 02:06:34;;;;;;;;;5.75;2.50;;;;;21.51;49.65;101088.03;5098226;27;45421;-45
2022/08/21 02:09:01;;;;;;;;;4.75;3.75;;;;;21.39;49.79;101072.34;5097657;27;45613;-47
2022/08/21 02:11:26;;;;;;;;;5.20;4.80;;;;;21.48;49.91;101089.41;5097693;27;45433;-47
2022/08/21 02:13:52;;;;;;;;;2.25;2.25;;;;;21.39;49.92;101069.56;5098007;27;45387;-49
2022/08/21 02:16:17;;;;;;;;;4.25;2.25;;;;;21.45;49.79;101080.75;5114457;27;45246;-46
2022/08/21 02:18:43;;;;;;;;;4.75;4.75;;;;;21.28;49.91;101045.53;5097582;27;46361;-47
2022/08/21 02:21:08;;;;;;;;;1.75;1.75;;;;;21.49;50.03;101077.13;5097765;27;45253;-47
2022/08/21 02:23:34;;;;;;;;;4.75;3.75;;;;;21.49;49.95;101074.31;5097474;27;45357;-46
2022/08/21 02:26:00;;;;;;;;;2.00;2.00;;;;;21.48;49.78;101081.03;5097324;27;45632;-48
2022/08/21 02:28:26;;;;;;;;;4.80;3.60;;;;;21.48;50.01;101080.19;5090092;27;46331;-46
2022/08/21 02:30:51;;;;;;;;;3.00;3.00;;;;;21.29;50.16;101054.75;5077540;27;45310;-47
2022/08/21 02:33:17;;;;;;;;;4.00;2.00;;;;;21.40;50.02;101071.25;5077741;27;45359;-48
2022/08/21 02:35:44;;;;;;;;;3.75;3.25;;;;;21.43;50.21;101071.78;5077274;27;45597;-47
2022/08/21 02:38:13;;;;;;;;;2.60;2.60;;;;;21.43;50.27;101078.22;5092998;27;46280;-49
2022/08/21 02:40:40;;;;;;;;;3.40;2.20;;;;;21.42;50.01;101081.28;5077004;27;45358;-49
2022/08/21 02:43:07;;;;;;;;;2.20;2.20;;;;;21.39;50.02;101077.09;5076188;28;45473;-48
2022/08/21 02:45:32;;;;;;;;;3.20;2.20;;;;;21.40;50.15;101076.00;5077429;28;45447;-48
2022/08/21 02:48:01;;;;;;;;;2.25;2.25;;;;;21.22;49.98;101046.66;5076901;27;46553;-46
2022/08/21 02:50:28;;;;;;;;;2.00;2.00;;;;;21.37;50.09;101077.41;5077027;27;45224;-50
2022/08/21 02:52:54;;;;;;;;;2.20;2.20;;;;;21.22;50.13;101067.03;5077162;27;45331;-46
2022/08/21 02:55:20;;;;;;;;;2.00;1.80;;;;;21.21;50.14;101068.16;5077389;27;45584;-50
2022/08/21 02:57:46;;;;;;;;;2.60;2.60;;;;;21.32;50.17;101085.75;5076357;27;47672;-45
2022/08/21 03:00:13;;;;;;;;;3.00;1.20;;;;;21.21;50.06;101079.31;5076887;28;45273;-46
2022/08/21 03:02:38;;;;;;;;;2.00;2.00;;;;;21.15;50.55;101074.84;5077299;27;45310;-46
2022/08/21 03:05:05;;;;;;;;;2.25;2.00;;;;;21.12;50.80;101084.59;5077161;27;45397;-44
2022/08/21 03:07:31;;;;;;;;;2.00;2.00;;;;;21.07;51.16;101080.97;5075984;28;47057;-44
2022/08/21 03:09:56;;;;;;;;;2.50;2.50;;;;;21.06;50.70;101066.16;5076519;27;45282;-47
2022/08/21 03:12:23;;;;;;;;;3.00;2.00;;;;;21.02;50.84;101075.38;5077264;27;45354;-48
2022/08/21 03:14:49;;;;;;;;;2.80;2.00;;;;;20.90;51.31;101067.22;5075375;28;45298;-46
2022/08/21 03:17:14;;;;;;;;;4.00;3.75;;;;;21.03;51.13;101079.81;5076896;28;46396;-46
2022/08/21 03:19:40;;;;;;;;;3.00;2.00;;;;;21.07;51.16;101081.78;5076872;27;45284;-47
2022/08/21 03:22:05;;;;;;;;;2.00;2.00;;;;;21.01;51.24;101077.31;5076423;27;45482;-46
2022/08/21 03:24:31;;;;;;;;;5.75;3.00;;;;;21.03;51.33;101088.19;5076587;27;45623;-45
2022/08/21 03:26:56;;;;;;;;;5.00;2.00;;;;;21.03;50.88;101074.25;5076495;27;45754;-45
2022/08/21 03:29:22;;;;;;;;;3.00;3.00;;;;;21.01;51.17;101073.69;5089054;27;45416;-45
2022/08/21 03:31:48;;;;;;;;;3.75;2.50;;;;;20.99;51.00;101060.81;5096910;27;45349;-45
2022/08/21 03:34:13;;;;;;;;;1.75;1.75;;;;;21.05;51.26;101066.44;5097100;27;45276;-45
2022/08/21 03:36:39;;;;;;;;;2.00;2.00;;;;;20.92;51.19;101051.06;5096587;27;46312;-46
2022/08/21 03:39:05;;;;;;;;;3.50;3.50;;;;;20.87;51.08;101031.50;5096513;27;45493;-46
2022/08/21 03:41:30;;;;;;;;;1.25;1.25;;;;;20.84;51.57;101030.09;5096777;27;45370;-46
2022/08/21 03:43:56;;;;;;;;;4.00;3.75;;;;;20.92;51.40;101046.31;5097242;27;45420;-45
2022/08/21 03:46:21;;;;;;;;;5.00;4.50;;;;;20.96;51.61;101038.22;5096650;27;46548;-48
2022/08/21 03:48:47;;;;;;;;;2.00;2.00;;;;;20.84;51.36;101007.78;5096554;27;45199;-45
2022/08/21 03:51:12;;;;;;;;;3.00;3.00;;;;;20.91;51.03;101015.91;5096571;27;45231;-48
2022/08/21 03:53:37;;;;;;;;;0.25;0.25;;;;;21.03;51.28;101029.59;5097211;27;45553;-47
2022/08/21 03:56:03;;;;;;;;;2.50;2.50;;;;;21.01;51.29;101026.25;5096398;27;45559;-45
2022/08/21 03:58:29;;;;;;;;;3.00;3.00;;;;;20.84;51.11;101011.44;5096546;27;45208;-47
2022/08/21 04:00:56;;;;;;;;;2.75;2.75;;;;;21.01;51.36;101041.03;5096704;27;45204;-46
2022/08/21 04:03:21;;;;;;;;;4.60;3.00;;;;;20.83;51.33;101009.72;5095443;27;45518;-47
2022/08/21 04:05:47;;;;;;;;;3.00;3.00;;;;;20.96;51.43;101029.84;5096192;27;45532;-47
2022/08/21 04:08:13;;;;;;;;;4.00;3.00;;;;;20.89;51.67;101041.28;5095250;27;45422;-46
2022/08/21 04:10:39;;;;;;;;;5.00;5.00;;;;;20.84;51.97;101038.47;5096620;27;45892;-47
2022/08/21 04:13:04;;;;;;;;;4.25;3.00;;;;;20.59;52.07;101012.16;5096668;27;45539;-45
2022/08/21 04:15:30;;;;;;;;;5.00;4.00;;;;;20.49;52.74;101007.38;5095933;27;46702;-47
2022/08/21 04:17:55;;;;;;;;;2.75;2.75;;;;;20.40;52.72;101000.66;5096661;27;45378;-52
2022/08/21 04:20:21;;;;;;;;;3.75;3.75;;;;;20.41;52.74;101016.25;5096322;27;45338;-48
2022/08/21 04:22:47;;;;;;;;;3.50;3.25;;;;;20.40;52.84;101020.16;5112007;27;45323;-50
2022/08/21 04:25:13;;;;;;;;;6.00;6.00;;;;;20.44;53.23;101036.06;5096179;27;45378;-50
2022/08/21 04:27:39;;;;;;;;;5.60;4.40;;;;;20.48;52.94;101041.94;5098605;27;45315;-47
2022/08/21 04:30:06;;;;;;;;;4.40;2.80;;;;;20.52;53.12;101057.03;5079726;27;45453;-52
2022/08/21 04:32:31;;;;;;;;;3.60;3.60;;;;;20.50;52.87;101062.03;5079259;27;45421;-49
2022/08/21 04:35:09;;;;;;;;;4.00;2.75;;;;;20.49;53.21;101068.69;5079052;27;46495;-48
2022/08/21 04:37:35;;;;;;;;;3.80;3.80;;;;;20.47;52.82;101058.94;5078878;27;45365;-49
2022/08/21 04:40:00;;;;;;;;;3.75;3.75;;;;;20.46;52.89;101058.09;5078048;28;45868;-45
2022/08/21 04:42:26;;;;;;;;;3.75;3.75;;;;;20.55;52.83;101070.41;5077825;28;45321;-46
2022/08/21 04:44:52;;;;;;;;;3.40;3.40;;;;;20.51;52.81;101057.28;5078984;27;45301;-46
2022/08/21 04:47:17;;;;;;;;;4.00;2.75;;;;;20.55;52.58;101066.78;5078823;28;45805;-45
2022/08/21 04:49:44;;;;;;;;;3.00;3.00;;;;;20.54;52.54;101067.91;5078742;27;45342;-46
2022/08/21 04:52:09;;;;;;;;;3.00;3.00;;;;;20.53;52.85;101077.34;5078850;27;45717;-48
2022/08/21 04:54:35;;;;;;;;;4.75;2.75;;;;;20.35;52.52;101048.84;5077485;28;45784;-44
2022/08/21 04:57:03;;;;;;;;;4.50;4.25;;;;;20.42;52.46;101054.16;5060556;28;45261;-45
2022/08/21 04:59:35;;;;;;;;;4.20;3.60;;;;;20.54;52.18;101073.47;5094214;27;45411;-47
2022/08/21 05:02:01;;;;;;;;;5.80;4.00;;;;;20.20;52.42;101035.66;5094650;27;45502;-46
2022/08/21 05:04:29;;;;;;;;;4.40;2.80;;;;;20.44;52.58;101075.09;5094206;27;45588;-43
2022/08/21 05:06:56;;;;;;;;;3.80;3.80;;;;;20.57;52.65;101084.06;5076926;28;45431;-47
2022/08/21 05:09:22;;;;;;;;;3.20;2.80;;;;;20.63;52.09;101077.41;5094595;27;45367;-42
2022/08/21 05:11:48;;;;;;;;;3.00;3.00;;;;;20.72;52.10;101080.53;5044576;27;45487;-45
2022/08/21 05:14:14;;;;;;;;;3.00;3.00;;;;;20.75;52.21;101079.16;5078530;28;46599;-42
2022/08/21 05:16:41;;;;;;;;;4.00;4.00;;;;;20.67;52.25;101064.63;5078202;27;45355;-43
2022/08/21 05:19:07;;;;;;;;;4.40;4.40;;;;;20.69;52.52;101069.91;5093864;27;45449;-44
2022/08/21 05:21:33;;;;;;;;;6.00;4.75;;;;;20.63;52.27;101065.41;5078631;27;45552;-43
2022/08/21 05:23:59;;;;;;;;;5.00;4.20;;;;;20.61;52.20;101073.22;5077828;27;46519;-44
2022/08/21 05:26:25;;;;;;;;;4.25;3.50;;;;;20.57;52.46;101067.34;5078479;27;45255;-43
2022/08/21 05:28:50;;;;;;;;;3.00;2.00;;;;;20.52;52.28;101065.38;5053677;27;46035;-44
2022/08/21 05:31:16;;;;;;;;;3.75;3.75;;;;;20.51;52.26;101066.50;5082909;27;45455;-42
2022/08/21 05:33:41;;;;;;;;;5.75;5.50;;;;;20.37;52.39;101041.06;5093645;27;45961;-44
2022/08/21 05:36:07;;;;;;;;;5.00;4.50;;;;;20.47;52.54;101062.56;5079860;27;45336;-41
2022/08/21 05:38:33;;;;;;;;;5.40;4.00;;;;;20.52;52.73;101064.53;5072149;27;45388;-42
2022/08/21 05:41:00;;;;;;;;;6.00;5.00;;;;;20.50;52.79;101061.19;5064914;27;45809;-42
2022/08/21 05:43:25;;;;;;;;;5.80;4.60;;;;;20.39;52.40;101049.16;5070568;27;46419;-42
2022/08/21 05:45:51;;;;;;;;;4.00;4.00;;;;;20.50;52.84;101061.19;5073303;27;45479;-43
2022/08/21 05:48:18;;;;;;;;;5.50;4.50;;;;;20.48;52.71;101061.44;5087408;27;45546;-42
2022/08/21 05:50:44;;;;;;;;;5.20;4.40;;;;;20.50;53.05;101072.34;5071774;27;45505;-42
2022/08/21 05:53:10;;;;;;;;;4.75;4.75;;;;;20.50;53.02;101075.97;5073051;27;46252;-42
2022/08/21 05:55:36;;;;;;;;;5.40;3.60;;;;;20.38;53.26;101059.44;5070830;27;45407;-43
2022/08/21 05:58:03;;;;;;;;;6.80;3.80;;;;;20.48;53.23;101080.16;5073297;27;45502;-44
2022/08/21 06:00:28;;;;;;;;;5.80;4.20;;;;;20.47;53.06;101073.72;5072068;28;45405;-42
2022/08/21 06:02:54;;;;;;;;;6.50;4.50;;;;;20.51;52.99;101077.66;5073224;27;46460;-41
2022/08/21 06:05:19;;;;;;;;;3.75;3.00;;;;;20.55;53.04;101080.72;5083795;27;45415;-42
2022/08/21 06:07:45;;;;;;;;;4.50;3.25;;;;;20.38;52.93;101048.31;5070674;27;45448;-42
2022/08/21 06:10:10;;;;;;;;;6.75;6.75;;;;;20.56;52.84;101069.28;5073117;27;45447;-42
2022/08/21 06:12:36;;;;;;;;;5.50;4.00;;;;;20.56;52.64;101069.28;5071286;27;45716;-43
2022/08/21 06:15:01;;;;;;;;;4.25;4.25;;;;;20.64;52.19;101087.47;5082555;27;45410;-45
2022/08/21 06:17:27;;;;;;;;;4.25;3.75;;;;;20.66;52.79;101095.56;5091985;27;45784;-42
2022/08/21 06:19:53;;;;;;;;;5.25;4.25;;;;;20.62;52.84;101088.84;5072917;27;45495;-45
2022/08/21 06:22:18;;;;;;;;;4.40;4.40;;;;;20.61;52.67;101085.22;5072950;27;46427;-43
2022/08/21 06:24:44;;;;;;;;;6.00;5.00;;;;;;;;5086196;27;45486;-43
2022/08/21 06:27:10;;;;;;;;;5.75;4.25;;;;;20.64;52.62;101079.09;5093779;27;45768;-43
2022/08/21 06:29:35;;;;;;;;;7.00;4.50;;;;;20.72;53.03;101077.75;5068926;27;45543;-43
2022/08/21 06:32:01;;;;;;;;;4.75;3.75;;;;;20.70;52.73;101069.63;5072604;27;46647;-44
2022/08/21 06:34:26;;;;;;;;;9.75;4.75;;;;;20.77;52.42;101082.50;5068545;27;45726;-44
2022/08/21 06:36:52;;;;;;;;;5.25;1.75;;;;;20.74;52.64;101077.47;5080713;27;45714;-44
2022/08/21 06:39:17;;;;;;;;;5.75;4.75;;;;;20.77;52.53;101079.72;5092376;27;45312;-46
2022/08/21 06:41:43;;;;;;;;;8.50;4.25;;;;;20.78;52.28;101075.78;5093353;27;45956;-45
2022/08/21 06:44:08;;;;;;;;;3.75;3.75;;;;;20.84;52.19;101066.38;5072196;27;45337;-44
2022/08/21 06:46:34;;;;;;;;;6.00;3.50;;;;;20.88;52.18;101059.16;5073136;27;45367;-43
2022/08/21 06:48:59;;;;;;;;;5.00;3.75;;;;;20.97;51.86;101051.09;5072679;27;45745;-43
2022/08/21 06:51:27;;;;;;;;;5.50;5.50;;;;;21.03;51.85;101044.38;5072301;27;46446;-44
2022/08/21 06:53:53;;;;;;;;;5.40;4.40;;;;;21.08;51.96;101044.41;5072663;27;45508;-43
2022/08/21 06:56:18;;;;;;;;;7.25;5.00;;;;;21.02;51.86;101047.47;5072240;27;45410;-44
2022/08/21 06:58:44;;;;;;;;;7.75;6.25;;;;;21.09;52.13;101048.84;5071361;28;45524;-45
2022/08/21 07:01:10;;;;;;;;;8.25;6.00;;;;;21.05;52.04;101042.16;5071416;28;45715;-46
2022/08/21 07:03:37;;;;;;;;;7.00;7.00;;;;;20.63;51.98;100968.66;5072271;27;45521;-46
2022/08/21 07:06:04;;;;;;;;;5.00;5.00;;;;;21.06;51.73;101046.63;5072732;27;45592;-45
2022/08/21 07:08:29;;;;;;;;;3.60;3.60;;;;;21.07;51.61;101048.31;5072346;27;45533;-44
2022/08/21 07:10:56;;;;;;;;;5.25;4.25;;;;;20.97;51.96;101046.31;5072653;27;45559;-45
2022/08/21 07:13:21;;;;;;;;;4.60;4.00;;;;;21.06;51.92;101051.34;5070952;28;45474;-46
2022/08/21 07:15:47;;;;;;;;;5.75;4.25;;;;;20.94;51.47;101021.78;5072573;27;45458;-45
2022/08/21 07:18:13;;;;;;;;;7.00;5.75;;;;;21.06;51.54;101040.19;5037229;27;45466;-46
2022/08/21 07:20:38;;;;;;;;;5.75;4.50;;;;;21.11;51.69;101043.00;5091340;27;45859;-45
2022/08/21 07:23:07;;;;;;;;;4.25;4.25;;;;;21.14;51.61;101039.69;5092365;27;45486;-45
2022/08/21 07:25:32;;;;;;;;;4.40;4.40;;;;;21.12;51.62;101042.72;5111649;27;45606;-44
2022/08/21 07:27:58;;;;;;;;;6.25;4.25;;;;;21.17;51.27;101047.47;5112464;27;45797;-43
2022/08/21 07:30:23;;;;;;;;;4.00;4.00;;;;;21.21;51.34;101043.03;5080184;27;46474;-44
2022/08/21 07:32:50;;;;;;;;;7.80;6.20;;;;;21.25;51.04;101044.13;5092052;27;45791;-44
2022/08/21 07:35:17;;;;;;;;;7.00;6.00;;;;;21.18;51.16;101015.66;5092659;27;45792;-44
2022/08/21 07:37:43;;;;;;;;;6.20;4.60;;;;;21.42;51.21;101039.41;5079963;27;45736;-46
2022/08/21 07:40:08;;;;;;;;;5.50;5.50;;;;;21.32;51.11;101012.31;5089540;27;45750;-45
2022/08/21 07:42:34;;;;;;;;;5.00;4.00;;;;;21.60;50.83;101043.63;5089678;27;45462;-45
2022/08/21 07:44:59;;;;;;;;;5.75;5.25;;;;;21.66;50.56;101042.47;5092047;27;45561;-42
2022/08/21 07:47:25;;;;;;;;;6.25;5.00;;;;;21.62;50.18;101030.22;5092020;27;45434;-45
2022/08/21 07:49:50;;;;;;;;;7.00;5.75;;;;;21.62;50.32;101021.84;5091553;27;45860;-44
2022/08/21 07:52:16;;;;;;;;;3.25;3.00;;;;;21.75;50.29;101031.63;5092265;27;45391;-41
2022/08/21 07:54:41;;;;;;;;;3.75;3.50;;;;;21.77;49.56;101016.25;5091516;27;45449;-42
2022/08/21 07:57:07;;;;;;;;;4.25;4.00;;;;;21.96;49.34;101035.22;5097705;27;45399;-43
2022/08/21 07:59:32;;;;;;;;;8.00;6.00;;;;;22.09;49.74;101042.19;5112530;27;46582;-44
2022/08/21 08:01:58;;;;;;;;;5.00;5.00;;;;;22.13;49.22;101032.13;5111256;27;45790;-43
2022/08/21 08:04:23;;;;;;;;;4.25;4.25;;;;;22.26;48.80;101044.69;5112283;27;45417;-42
2022/08/21 08:06:49;;;;;;;;;4.75;4.75;;;;;22.31;48.90;101022.28;5128210;27;45420;-42
2022/08/21 08:09:15;;;;;;;;;6.00;5.50;;;;;22.47;48.50;101028.63;5091261;27;45752;-44
2022/08/21 08:11:42;;;;;;;;;5.00;5.00;;;;;22.53;48.44;101028.66;5092018;27;45806;-42
2022/08/21 08:14:08;;;;;;;;;4.80;4.00;;;;;22.60;48.25;101026.38;5090338;27;45467;-45
2022/08/21 08:16:33;;;;;;;;;6.25;4.75;;;;;22.54;47.94;101008.81;5092181;27;45577;-43
2022/08/21 08:18:59;;;;;;;;;7.00;6.50;;;;;22.69;47.28;101023.84;5090208;27;46139;-43
2022/08/21 08:21:24;;;;;;;;;5.75;4.75;;;;;22.57;47.79;101002.63;5089837;27;45454;-43
2022/08/21 08:23:50;;;;;;;;;4.75;4.75;;;;;22.77;47.36;101031.63;5105956;27;45419;-42
2022/08/21 08:26:15;;;;;;;;;5.75;3.00;;;;;22.73;47.52;101002.56;5092097;27;45433;-43
2022/08/21 08:28:41;;;;;;;;;5.25;5.25;;;;;22.91;47.31;101030.97;5087860;27;45739;-45
2022/08/21 08:31:07;;;;;;;;;5.80;4.40;;;;;22.94;47.97;101024.81;5091009;27;45408;-44
2022/08/21 08:33:32;;;;;;;;;5.25;5.25;;;;;23.00;47.26;101029.25;5092136;27;45441;-44
2022/08/21 08:35:58;;;;;;;;;6.00;4.50;;;;;23.06;46.91;101027.25;5109009;27;45552;-45
2022/08/21 08:38:24;;;;;;;;;5.75;4.50;;;;;23.00;46.86;101010.50;5081328;27;46495;-45
2022/08/21 08:41:13;;;;;;;;;6.40;5.00;;;;;22.99;46.96;100993.97;5112030;27;45366;-45
2022/08/21 08:43:48;;;;;;;;;5.20;4.20;;;;;23.12;47.03;101015.72;5106676;27;45590;-44
2022/08/21 08:46:15;;;;;;;;;4.00;4.00;;;;;23.22;47.09;101017.63;5090271;27;45489;-45
2022/08/21 08:49:03;;;;;;;;;7.00;5.80;;;;;23.21;46.65;101018.75;5090314;27;46750;-44
2022/08/21 08:51:46;;;;;;;;;6.00;5.00;;;;;23.27;46.55;101017.56;5091536;27;45799;-44
2022/08/21 08:54:15;;;;;;;;;8.00;7.00;;;;;23.28;46.39;101007.22;5091313;27;45451;-44
2022/08/21 08:56:41;;;;;;;;;5.80;5.80;;;;;23.38;46.52;101011.94;5090059;27;45875;-42
2022/08/21 08:59:22;;;;;;;;;5.50;4.25;;;;;23.36;46.42;101006.63;5090867;27;46216;-44
2022/08/21 09:01:48;;;;;;;;;4.80;3.60;;;;;23.45;46.00;101003.19;5089884;27;45760;-44
2022/08/21 09:04:13;;;;;;;;;8.50;4.50;;;;;23.49;46.07;100998.69;5090981;27;45459;-44
2022/08/21 09:06:39;;;;;;;;;7.00;5.50;;;;;23.61;45.95;101007.53;5090472;27;45436;-48
2022/08/21 09:09:44;;;;;;;;;6.00;6.00;;;;;23.23;45.70;100926.06;5090265;27;46475;-44
2022/08/21 09:12:16;;;;;;;;;5.20;4.40;;;;;23.61;45.58;100973.06;5053827;27;45505;-45
2022/08/21 09:15:09;;;;;;;;;8.60;6.20;;;;;23.85;45.42;100998.31;5093420;27;46005;-46
2022/08/21 09:17:37;;;;;;;;;8.20;5.80;;;;;23.89;45.01;100991.00;5060739;27;45416;-48
2022/08/21 09:20:40;;;;;;;;;4.40;4.40;;;;;23.96;44.76;100985.06;5091360;27;45467;-45
2022/08/21 09:23:11;;;;;;;;;4.80;4.20;;;;;24.04;44.83;100989.16;5092927;27;45430;-45
2022/08/21 09:25:45;;;;;;;;;6.00;5.00;;;;;24.01;45.00;100984.16;5094703;27;45456;-45
2022/08/21 09:28:12;;;;;;;;;4.00;4.00;;;;;24.04;44.73;100975.16;5095130;27;45431;-45
2022/08/21 09:30:37;;;;;;;;;5.40;4.80;;;;;24.07;45.30;100977.41;5097713;27;45945;-46
2022/08/21 09:33:03;;;;;;;;;3.25;3.25;;;;;24.02;45.11;100983.84;5105185;27;45435;-43
2022/08/21 09:35:28;;;;;;;;;4.75;4.75;;;;;23.96;44.29;100980.28;5098799;27;45909;-43
2022/08/21 09:37:54;;;;;;;;;5.00;5.00;;;;;23.81;44.41;100967.25;5082896;27;46763;-43
2022/08/21 09:40:25;;;;;;;;;3.00;3.00;;;;;23.98;44.11;100984.75;5076763;27;46181;-42
2022/08/21 09:42:55;;;;;;;;;5.00;5.00;;;;;23.94;43.55;100985.34;5092111;27;45708;-43
2022/08/21 09:45:21;;;;;;;;;8.00;5.80;;;;;23.95;43.29;100987.03;5098860;27;45430;-46
2022/08/21 09:47:46;;;;;;;;;4.00;3.25;;;;;23.99;43.47;101000.44;5092162;27;45508;-43
2022/08/21 09:50:14;;;;;;;;;4.75;4.75;;;;;24.06;42.83;100992.53;5094927;27;45528;-43
2022/08/21 09:52:51;;;;;;;;;4.80;3.60;;;;;24.08;42.86;100993.91;5106017;27;45801;-44
2022/08/21 09:58:06;;;;;;;;;5.40;5.40;;;;;24.14;42.79;100961.06;5091846;27;45909;-45
2022/08/21 10:00:32;;;;;;;;;4.80;4.20;;;;;24.41;42.41;100981.19;5092027;27;45788;-46
2022/08/21 10:03:18;;;;;;;;;6.20;5.20;;;;;24.55;43.00;100970.88;5091524;27;45474;-44
2022/08/21 10:05:55;;;;;;;;;5.80;5.00;;;;;24.62;42.08;100957.34;5093008;27;45377;-46
2022/08/21 10:08:22;;;;;;;;;3.80;3.80;;;;;24.80;41.46;100970.84;5102300;27;45700;-45
2022/08/21 10:10:51;;;;;;;;;6.80;5.80;;;;;24.80;41.94;100948.41;5091627;27;47494;-45
2022/08/21 10:13:21;;;;;;;;;7.20;6.00;;;;;24.61;42.27;100926.78;5093064;27;45535;-51
2022/08/21 10:16:24;;;;;;;;;9.00;6.20;;;;;24.83;42.71;100951.47;5093371;27;45361;-52
2022/08/21 10:19:02;;;;;;;;;8.00;6.60;;;;;24.74;43.20;100923.22;5093578;27;45594;-52
2022/08/21 10:21:39;;;;;;;;;7.60;6.00;;;;;24.77;42.69;100945.03;5095819;27;46573;-51
2022/08/21 10:24:24;;;;;;;;;4.00;4.00;;;;;24.70;43.10;100943.78;5082133;27;45535;-54
2022/08/21 10:27:15;;;;;;;;;5.60;5.60;;;;;24.65;43.02;100933.44;5113947;27;45582;-50
2022/08/21 10:29:43;;;;;;;;;6.40;5.00;;;;;24.61;43.48;100929.59;5093784;27;45397;-51
2022/08/21 10:32:27;;;;;;;;;4.00;4.00;;;;;24.52;42.92;100914.56;5093579;27;46641;-53
2022/08/21 10:34:56;;;;;;;;;6.40;4.40;;;;;24.54;43.30;100915.09;5091154;27;45357;-51
2022/08/21 10:37:37;;;;;;;;;4.40;4.40;;;;;24.55;42.57;100930.78;5092507;27;45730;-53
2022/08/21 10:40:06;;;;;;;;;4.40;4.40;;;;;24.38;42.26;100908.88;5090978;27;45385;-53
2022/08/21 10:42:55;;;;;;;;;6.00;5.00;;;;;24.56;42.54;100921.22;5073134;27;46494;-51
2022/08/21 10:45:52;;;;;;;;;5.00;3.80;;;;;24.56;42.59;100910.84;5084339;27;45887;-52
2022/08/21 10:48:35;;;;;;;;;7.20;3.80;;;;;24.59;42.87;100879.38;5094361;27;45751;-53
2022/08/21 10:51:27;;;;;;;;;3.60;3.60;;;;;24.84;42.78;100898.94;5092241;27;45340;-49
2022/08/21 10:54:15;;;;;;;;;7.60;6.60;;;;;24.78;42.26;100845.66;5091766;27;45821;-52
2022/08/21 10:56:41;;;;;;;;;3.00;3.00;;;;;25.18;41.54;100898.66;5092828;27;45744;-50
2022/08/21 10:59:22;;;;;;;;;5.00;4.00;;;;;25.34;41.73;100903.19;5109275;27;45982;-53
2022/08/21 11:02:05;;;;;;;;;3.60;3.60;;;;;25.41;41.92;100906.41;5114028;27;45687;-53
2022/08/21 11:04:48;;;;;;;;;5.00;5.00;;;;;25.52;41.11;100902.31;5113668;27;45790;-49
2022/08/21 11:07:25;;;;;;;;;7.20;4.60;;;;;25.52;41.07;100891.06;5096610;27;45470;-52
2022/08/21 11:09:50;;;;;;;;;6.60;6.40;;;;;25.54;40.57;100877.53;5122234;27;45477;-49
2022/08/21 11:12:37;;;;;;;;;5.75;5.75;;;;;25.45;39.99;100870.91;5098531;27;45418;-51
2022/08/21 11:15:12;;;;;;;;;8.00;5.00;;;;;25.56;40.09;100906.16;5074536;27;46678;-52
2022/08/21 11:17:43;;;;;;;;;5.00;3.80;;;;;25.48;40.66;100900.38;5093277;27;45473;-51
2022/08/21 11:20:29;;;;;;;;;8.40;4.00;;;;;25.36;41.23;100904.53;5075258;27;45515;-50
2022/08/21 11:22:58;;;;;;;;;4.60;3.60;;;;;25.36;40.96;100915.78;5074064;27;45815;-50
2022/08/21 11:25:35;;;;;;;;;6.00;5.00;;;;;25.34;40.90;100905.97;5089405;27;46433;-53
2022/08/21 11:28:06;;;;;;;;;5.00;5.00;;;;;25.52;40.99;100919.16;5092385;27;45364;-55
2022/08/21 11:30:43;;;;;;;;;8.40;4.80;;;;;25.60;41.11;100919.59;5087236;27;45466;-53
2022/08/21 11:33:26;;;;;;;;;6.80;5.60;;;;;25.82;41.17;100922.50;5091238;27;45765;-50
2022/08/21 11:35:56;;;;;;;;;4.60;3.40;;;;;26.09;40.56;100918.03;5092687;27;47473;-52